Tiempo atmosférico en la estación meteorológica de Barbate, Cádiz (4 m.)



Fecha
DESCASC
Temp. máxima en grados centígrados (hora)
DESCASC
Temp. mínima en grados centígrados (hora)
DESCASC
Temp. media en grados centígrados
DESCASC
Racha de viento máxima en m/sg (hora)
DESCASC
Velocidad máxima media en intervalos de 10 minutos(hora)
DESCASC
Precipitaciones diarias en mm
DESCASC
Precipitaciones de 00:00 a 06:00 en mm
DESCASC
Precipitaciones de 06:00 a 12:00 en mm
DESCASC
Precipitaciones de 12:00 a 18:00 en mm
DESCASC
Precipitaciones de 18:00 a 24:00 en mm
DESCASC
18-01-2018 17.4 (15:00) 12.9 (00:00) 15.1 14.44 (10:40) 9.44 (10:50) -- -- -- -- --
17-01-2018 19.4 (16:00) 6.1 (07:50) 12.7 8.61 (23:30) 6.39 (23:30) -- -- -- -- --
16-01-2018 17.2 (15:30) 5.7 (07:40) 11.5 6.39 (00:50) 4.72 (00:30) -- -- -- -- --
15-01-2018 15.2 (16:00) 3.1 (07:20) 9.1 7.78 (17:50) 5.28 (17:50) -- -- -- -- --
14-01-2018 13.3 (17:10) 5.4 (00:00) 9.4 6.67 (17:20) 4.17 (17:20) -- -- -- -- --
13-01-2018 14.2 (16:40) 6 (00:00) 10.1 13.61 (14:20) 10.56 (14:00) -- -- -- -- --
12-01-2018 16 (14:40) 4 (00:00) 10 6.39 (16:10) 5 (16:00) -- -- -- -- --
11-01-2018 16.1 (15:50) 7.9 (00:00) 12 9.44 (13:20) 6.11 (15:10) -- -- -- -- --
10-01-2018 17.8 (15:20) 11 (00:00) 14.4 20.28 (00:20) 16.11 (00:20) -- -- -- -- --
09-01-2018 13.6 (13:10) 2.7 (00:00) 8.2 -- (--) 16.94 (22:40) -- -- -- -- --
08-01-2018 11.5 (06:40) 6.1 (00:00) 8.8 24.17 (07:30) 15.56 (07:30) 15.6 1.8 13.8 0 0
07-01-2018 13.3 (13:10) 4.7 (00:00) 9 15.28 (21:30) 12.22 (21:30) 0 0 0 0 0
06-01-2018 14.2 (00:00) 7.8 (00:00) 11 20 (02:40) 15.83 (02:40) 13 13 0 0 0
05-01-2018 16.3 (12:30) 14.2 (00:00) 15.2 17.22 (23:59) 12.78 (23:59) 2.6 0 0 0 2.6
04-01-2018 16.1 (12:20) 10.7 (07:20) 13.4 7.78 (12:40) 4.44 (12:40) 0 0 0 0 0
03-01-2018 19.8 (15:10) 10.3 (00:00) 15 9.17 (03:40) 5 (03:30) 0 0 0 0 0
02-01-2018 18.4 (15:10) 5.4 (00:00) 11.9 10 (16:00) 6.67 (15:50) 0 0 0 0 0
01-01-2018 18.1 (16:00) 6.1 (00:00) 12.1 7.78 (15:20) 4.72 (15:20) 0 0 0 0 0
31-12-2017 19.5 (15:30) 11.5 (00:00) 15.5 6.67 (08:20) 5 (07:50) 0 0 0 0 0
30-12-2017 19.9 (14:30) 8.1 (00:00) 14 5.28 (05:20) 3.61 (05:20) 0.2 0 0 0.2 0
29-12-2017 19 (15:40) 13.1 (00:00) 16.1 7.5 (02:40) 5 (13:40) 0.6 0.6 0 0 0
28-12-2017 19 (16:00) 13.7 (00:00) 16.3 12.78 (13:30) 8.33 (14:40) 0 0 0 0 0
27-12-2017 17.5 (16:00) 13.4 (00:00) 15.4 17.22 (08:30) 12.22 (04:40) 4.8 0 4.8 0 0
26-12-2017 16.1 (06:50) 12.7 (00:00) 14.4 13.33 (08:50) 10 (09:20) 10.8 0 10.6 0.2 0
25-12-2017 15.2 (20:50) 9.4 (00:00) 12.3 13.33 (16:00) 11.39 (16:00) 19.4 0 7.2 12 0.2
24-12-2017 18.7 (14:30) 13.1 (00:00) 15.9 13.33 (13:10) 8.61 (16:50) 0 0 0 0 0
23-12-2017 18.6 (16:00) 5.6 (00:00) 12.1 9.44 (23:50) 5.28 (23:50) 0 0 0 0 0
22-12-2017 18.6 (17:00) 7.7 (00:00) 13.2 6.67 (00:10) 4.72 (00:40) 0 0 0 0 0

Gráficas

Temp. máximas Temp. mínimas Temp. medias Precipitaciones Rachas de viento máximas Velocidades máximas media en intervalos de 10 minutos

Datos horarios

Fecha y hora oficial Temperatura (ºC) Velocidad del viento (km/h) Dirección del viento Racha (km/h) Dirección de racha Precipitación (mm) Presión (hPa) Tendencia (hPa) Humedad (%)
2018-01-20 23:00:00 7.8 7 Nordeste 9 Nordeste -- -- -- 99
2018-01-20 22:00:00 10.1 4 Norte 8 Sudoeste -- -- -- 97
2018-01-20 21:00:00 11.7 4 Sudoeste 15 Sudoeste -- -- -- 98
2018-01-20 20:00:00 12.8 9 Oeste 13 Oeste -- -- -- 97
2018-01-20 19:00:00 13.7 9 Sudoeste 22 Oeste -- -- -- 96
2018-01-20 18:00:00 14.7 19 Oeste 24 Sudoeste -- -- -- 93
2018-01-20 17:00:00 17.9 19 Sudoeste 26 Sudoeste -- -- -- 84
2018-01-20 16:00:00 18.4 15 Sudoeste 17 Sudoeste -- -- -- 83
2018-01-20 15:00:00 17.2 16 Sudoeste 22 Sudoeste -- -- -- 89
2018-01-20 14:00:00 16 17 Sudoeste 23 Sudoeste -- -- -- 93
2018-01-20 13:00:00 15.5 19 Sudoeste 23 Sudoeste -- -- -- 100
2018-01-20 12:00:00 12.7 2 Norte 10 Norte -- -- -- 100
2018-01-20 11:00:00 10.2 5 Norte 14 Norte -- -- -- 100
2018-01-20 10:00:00 8.8 8 Nordeste 14 Norte -- -- -- 100
2018-01-20 09:00:00 7.1 8 Norte 15 Norte -- -- -- 100
2018-01-20 08:00:00 6.9 8 Nordeste 13 Norte -- -- -- 100
2018-01-20 07:00:00 6.8 6 Norte 12 Norte -- -- -- 100
2018-01-20 06:00:00 7.4 6 Nordeste 9 Norte -- -- -- 100
2018-01-20 05:00:00 7.9 5 Norte 13 Norte -- -- -- 100
2018-01-20 04:00:00 7.8 7 Norte 13 Norte -- -- -- 100
2018-01-20 03:00:00 8.4 7 Norte 12 Norte -- -- -- 100
2018-01-20 02:00:00 8.3 8 Nordeste 12 Norte -- -- -- 99
2018-01-20 01:00:00 8.4 6 Nordeste 12 Norte -- -- -- 97
2018-01-20 00:00:00 9.5 6 Norte 8 Norte -- -- -- 95
2018-01-19 23:00:00 10.8 5 Nordeste 9 Norte -- -- -- 93
2018-01-19 22:00:00 11.6 7 Norte 9 Norte -- -- -- 91
2018-01-19 21:00:00 12.3 6 Norte 8 Norte -- -- -- 89
2018-01-19 20:00:00 13.5 2 Oeste 6 Noroeste -- -- -- 85
2018-01-19 19:00:00 14.4 6 Oeste 18 Oeste -- -- -- 78
2018-01-19 18:00:00 16.6 12 Oeste 20 Oeste -- -- -- 75
2018-01-19 17:00:00 18.2 16 Oeste 20 Oeste -- -- -- 72
2018-01-19 16:00:00 18.6 15 Sudoeste 18 Oeste -- -- -- 74
2018-01-19 15:00:00 19.1 11 Oeste 13 Oeste -- -- -- 74
2018-01-19 14:00:00 18.7 9 Sudoeste 12 Sudoeste -- -- -- 72
2018-01-19 13:00:00 15.8 3 Norte 13 Nordeste -- -- -- 72
2018-01-19 12:00:00 13.2 8 Nordeste 11 Nordeste -- -- -- 83
2018-01-19 11:00:00 12.1 5 Norte 9 Norte -- -- -- 90
2018-01-19 10:00:00 10.9 8 Este 9 Este -- -- -- 94
2018-01-19 09:00:00 10.9 3 Este 9 Nordeste -- -- -- 91
2018-01-19 08:00:00 11.2 6 Nordeste 13 Norte -- -- -- 90
2018-01-19 07:00:00 11.7 8 Norte 17 Nordeste -- -- -- 88
2018-01-19 06:00:00 12.5 18 Nordeste 23 Nordeste -- -- -- 89
2018-01-19 05:00:00 13.2 7 Norte 21 Este -- -- -- 87
2018-01-19 04:00:00 12.7 9 Nordeste 21 Este -- -- -- 88
2018-01-19 03:00:00 12.9 6 Nordeste 20 Este -- -- -- 85
2018-01-19 02:00:00 13.9 4 Este 32 Este -- -- -- 80
2018-01-19 01:00:00 14 20 Nordeste 25 Nordeste -- -- -- 79
2018-01-19 00:00:00 13.7 10 Nordeste 25 Nordeste -- -- -- 80
2018-01-18 23:00:00 13.7 24 Nordeste 35 Nordeste -- -- -- 81
2018-01-18 22:00:00 13.8 19 Nordeste 29 Este -- -- -- 78
2018-01-18 21:00:00 14.4 24 Este 40 Este -- -- -- 76
2018-01-18 20:00:00 14.7 21 Este 47 Este -- -- -- 72
2018-01-18 19:00:00 14.7 29 Este 45 Este -- -- -- 70
2018-01-18 18:00:00 15.3 12 Este 37 Este -- -- -- 68
2018-01-18 17:00:00 16.9 13 Este 43 Este -- -- -- 69
2018-01-18 16:00:00 17.2 23 Este 40 Sudeste -- -- -- 68
2018-01-18 15:00:00 17.4 22 Este 48 Este -- -- -- 72
2018-01-18 14:00:00 16.9 22 Este 44 Sudeste -- -- -- 74
2018-01-18 13:00:00 15.6 12 Este 34 Este -- -- -- 81
2018-01-18 12:00:00 15.6 17 Este 45 Este -- -- -- 81
2018-01-18 11:00:00 16.7 29 Este 52 Este -- -- -- 77
2018-01-18 10:00:00 15.7 20 Este 51 Este -- -- -- 77
2018-01-18 09:00:00 14.6 17 Este 43 Este -- -- -- 83
2018-01-18 08:00:00 14.1 12 Este 40 Este -- -- -- 83
2018-01-18 07:00:00 13.4 17 Este 30 Este -- -- -- 87
2018-01-18 06:00:00 13.2 14 Este 30 Este -- -- -- 83
2018-01-18 05:00:00 14 25 Este 42 Este -- -- -- 81
2018-01-18 04:00:00 13.5 17 Este 31 Este -- -- -- 83
2018-01-18 03:00:00 14 22 Este 38 Este -- -- -- 79
2018-01-18 02:00:00 13.8 12 Este 30 Este -- -- -- 82
2018-01-18 01:00:00 13.9 22 Este 43 Sudeste -- -- -- 79
2018-01-18 00:00:00 12.9 15 Sudeste 31 Este -- -- -- 88
2018-01-17 23:00:00 10.6 3 Sur 18 Norte -- -- -- 95
2018-01-17 22:00:00 10.5 8 Norte 13 Norte -- -- -- 93
2018-01-17 21:00:00 12.4 3 Noroeste 9 Norte -- -- -- 92
2018-01-17 20:00:00 12.4 8 Norte 11 Norte -- -- -- 89
2018-01-17 19:00:00 15.2 0 Calma 6 Sur -- -- -- 83
2018-01-17 18:00:00 17.3 4 Sur 10 Sur -- -- -- 77
2018-01-17 17:00:00 18.3 9 Sur 12 Sur -- -- -- 74
2018-01-17 16:00:00 19.4 9 Sudoeste 15 Sudoeste -- -- -- 71
2018-01-17 15:00:00 18.2 8 Norte 13 Norte -- -- -- 68
2018-01-17 14:00:00 17.2 9 Nordeste 19 Norte -- -- -- 70
2018-01-17 13:00:00 16.4 11 Nordeste 21 Norte -- -- -- 74
2018-01-17 12:00:00 14.4 12 Nordeste 20 Nordeste -- -- -- 75
2018-01-17 11:00:00 11.1 17 Nordeste 22 Nordeste -- -- -- 87
2018-01-17 10:00:00 7.9 8 Nordeste 12 Nordeste -- -- -- 100
2018-01-17 09:00:00 6.1 7 Norte 12 Norte -- -- -- 100
2018-01-17 08:00:00 6.1 6 Nordeste 18 Norte -- -- -- 100
2018-01-17 07:00:00 6.4 12 Norte 18 Nordeste -- -- -- 100
2018-01-17 06:00:00 6.5 12 Nordeste 17 Nordeste -- -- -- 100
2018-01-17 05:00:00 7.1 9 Norte 14 Nordeste -- -- -- 99
2018-01-17 04:00:00 7 10 Nordeste 15 Nordeste -- -- -- 98
2018-01-17 03:00:00 7.4 6 Norte 12 Nordeste -- -- -- 96
2018-01-17 02:00:00 7.9 5 Norte 12 Norte -- -- -- 95
2018-01-17 01:00:00 8.1 5 Norte 10 Norte -- -- -- 92
2018-01-17 00:00:00 9.3 5 Norte 7 Nordeste -- -- -- 91
2018-01-16 23:00:00 9 5 Nordeste 12 Nordeste -- -- -- 91
2018-01-16 22:00:00 10.1 9 Norte 12 Norte -- -- -- 87
2018-01-16 21:00:00 11.1 7 Nordeste 8 Este -- -- -- 84
2018-01-16 20:00:00 12.4 5 Norte 10 Norte -- -- -- 78
2018-01-16 19:00:00 15 5 Noroeste 8 Sudoeste -- -- -- 79
2018-01-16 18:00:00 16.9 2 Sur 14 Nordeste -- -- -- 73
2018-01-16 17:00:00 17.1 8 Norte 15 Norte -- -- -- 57
2018-01-16 16:00:00 17.2 11 Nordeste 18 Nordeste -- -- -- 59
2018-01-16 15:00:00 16.7 10 Nordeste 19 Norte -- -- -- 65
2018-01-16 14:00:00 16.2 9 Norte 18 Norte -- -- -- 70
2018-01-16 13:00:00 14.9 7 Norte 16 Nordeste -- -- -- 76
2018-01-16 12:00:00 12.8 8 Norte 14 Norte -- -- -- 80
2018-01-16 11:00:00 9.6 5 Norte 14 Nordeste -- -- -- 90
2018-01-16 10:00:00 7.7 5 Nordeste 16 Norte -- -- -- 94
2018-01-16 09:00:00 5.7 6 Norte 17 Nordeste -- -- -- 97
2018-01-16 08:00:00 6 13 Nordeste 18 Nordeste -- -- -- 98
2018-01-16 07:00:00 6.5 9 Nordeste 15 Norte -- -- -- 97
2018-01-16 06:00:00 7.1 10 Norte 17 Norte -- -- -- 97
2018-01-16 05:00:00 7.8 9 Norte 16 Norte -- -- -- 95
2018-01-16 04:00:00 8.5 8 Norte 14 Norte -- -- -- 95
2018-01-16 03:00:00 8.2 8 Norte 14 Norte -- -- -- 95
2018-01-16 02:00:00 8.9 6 Norte 22 Este -- -- -- 92
2018-01-16 01:00:00 10.3 14 Este 23 Este -- -- -- 90
2018-01-16 00:00:00 8.4 4 Norte 17 Norte -- -- -- 95
2018-01-15 23:00:00 9.3 10 Norte 15 Nordeste -- -- -- 91
2018-01-15 22:00:00 8.9 7 Norte 13 Nordeste -- -- -- 93
2018-01-15 21:00:00 9.3 4 Nordeste 11 Norte -- -- -- 90
2018-01-15 20:00:00 10.6 9 Nordeste 14 Nordeste -- -- -- 87
2018-01-15 19:00:00 11 9 Nordeste 15 Este -- -- -- 82
2018-01-15 18:00:00 13.3 16 Este 28 Este -- -- -- 71
2018-01-15 17:00:00 14.6 17 Este 25 Este -- -- -- 65
2018-01-15 16:00:00 15.2 13 Este 21 Este -- -- -- 64
2018-01-15 15:00:00 14.4 7 Nordeste 18 Norte -- -- -- 62
2018-01-15 14:00:00 13.8 9 Norte 17 Nordeste -- -- -- 67
2018-01-15 13:00:00 12.1 10 Nordeste 19 Nordeste -- -- -- 69
2018-01-15 12:00:00 10.5 8 Norte 20 Norte -- -- -- 86
2018-01-15 11:00:00 7.8 12 Norte 23 Nordeste -- -- -- 100
2018-01-15 10:00:00 5.4 10 Norte 18 Nordeste -- -- -- 100
2018-01-15 09:00:00 3.9 13 Nordeste 23 Nordeste -- -- -- 100
2018-01-15 08:00:00 3.7 10 Norte 17 Norte -- -- -- 100
2018-01-15 07:00:00 3.4 5 Norte 12 Nordeste -- -- -- 100
2018-01-15 06:00:00 3.6 7 Nordeste 10 Norte -- -- -- 100
2018-01-15 05:00:00 4.2 6 Nordeste 14 Nordeste -- -- -- 100
2018-01-15 04:00:00 5 5 Nordeste 10 Nordeste -- -- -- 100
2018-01-15 03:00:00 5.6 6 Nordeste 9 Nordeste -- -- -- 100
2018-01-15 02:00:00 5.6 5 Norte 13 Nordeste -- -- -- 99
2018-01-15 01:00:00 6.1 6 Nordeste 10 Nordeste -- -- -- 98
2018-01-15 00:00:00 6.5 9 Nordeste 10 Nordeste -- -- -- 96
2018-01-14 23:00:00 7 5 Norte 9 Norte -- -- -- 95
2018-01-14 22:00:00 7.4 4 Este 8 Noroeste -- -- -- 93
2018-01-14 21:00:00 9 5 Norte 9 Noroeste -- -- -- 88
2018-01-14 20:00:00 9.1 5 Norte 14 Noroeste -- -- -- 89
2018-01-14 19:00:00 10.3 8 Noroeste 15 Noroeste -- -- -- 85
2018-01-14 18:00:00 11.9 13 Noroeste 24 Oeste -- -- -- 79
2018-01-14 17:00:00 13.1 11 Noroeste 19 Noroeste -- -- -- 77
2018-01-14 16:00:00 13.1 8 Norte 22 Norte -- -- -- 85
2018-01-14 15:00:00 11.8 10 Noroeste 18 Noroeste -- -- -- 99
2018-01-14 14:00:00 11.2 5 Oeste 8 Sur -- -- -- 100
2018-01-14 13:00:00 10.3 5 Sur 8 Este -- -- -- 100
2018-01-14 12:00:00 9 5 Este 12 Norte -- -- -- 100
2018-01-14 11:00:00 8.8 6 Norte 17 Nordeste -- -- -- 100
2018-01-14 10:00:00 8.7 0 Calma 10 Oeste -- -- -- 100
2018-01-14 09:00:00 7.3 6 Norte 14 Nordeste -- -- -- 100
2018-01-14 08:00:00 6.9 8 Norte 15 Norte -- -- -- 100
2018-01-14 07:00:00 6.1 7 Nordeste 17 Norte -- -- -- 100
2018-01-14 06:00:00 5.5 8 Norte 14 Norte -- -- -- 100
2018-01-14 05:00:00 5.6 8 Norte 14 Norte -- -- -- 100
2018-01-14 04:00:00 6.1 8 Norte 11 Norte -- -- -- 100
2018-01-14 03:00:00 6.9 7 Norte 11 Norte -- -- -- 100
2018-01-14 02:00:00 7.7 5 Norte 11 Nordeste -- -- -- 100
2018-01-14 01:00:00 7.9 5 Nordeste 8 Norte -- -- -- 99
2018-01-14 00:00:00 9 6 Norte 10 Norte -- -- -- 99
2018-01-13 23:00:00 8.8 5 Norte 23 Norte -- -- -- 98
2018-01-13 22:00:00 10.1 2 Nordeste -- -- -- -- -- 96
2018-01-13 21:00:00 10.5 0 Calma 10 Norte -- -- -- 96
2018-01-13 20:00:00 11 8 Norte 14 Norte -- -- -- 92
2018-01-13 19:00:00 11.6 10 Noroeste 15 Norte -- -- -- 89
2018-01-13 18:00:00 13.1 9 Norte 26 Noroeste -- -- -- 86
2018-01-13 17:00:00 14.1 16 Noroeste 34 Oeste -- -- -- 91
2018-01-13 16:00:00 14.1 26 Sudoeste 32 Sudoeste -- -- -- 95
2018-01-13 15:00:00 13.3 19 Oeste 49 Oeste -- -- -- 99
2018-01-13 14:00:00 13.5 38 Sudoeste 45 Sudoeste -- -- -- 98
2018-01-13 13:00:00 13.8 28 Sudoeste 45 Sudoeste -- -- -- 95
2018-01-13 12:00:00 12.2 24 Sudoeste 32 Sudoeste -- -- -- 98
2018-01-13 11:00:00 8.3 6 Norte 15 Norte -- -- -- 99
2018-01-13 10:00:00 7.1 8 Nordeste 12 Norte -- -- -- 99
2018-01-13 09:00:00 6.1 8 Norte 11 Nordeste -- -- -- 100
2018-01-13 08:00:00 6.5 7 Norte 11 Norte -- -- -- 99
2018-01-13 07:00:00 6.6 7 Norte 12 Nordeste -- -- -- 99
2018-01-13 06:00:00 6.5 5 Norte 10 Norte -- -- -- 99
2018-01-13 05:00:00 6.8 9 Nordeste 13 Norte -- -- -- 98
2018-01-13 04:00:00 6.6 9 Norte 13 Norte -- -- -- 100
2018-01-13 03:00:00 6.7 8 Norte 12 Norte -- -- -- 99
2018-01-13 02:00:00 6.9 7 Norte 14 Norte -- -- -- 99
2018-01-13 01:00:00 7.3 8 Norte 12 Norte -- -- -- 97
2018-01-13 00:00:00 7.3 7 Norte 9 Norte -- -- -- 96
2018-01-12 23:00:00 8.2 7 Norte 10 Nordeste -- -- -- 96
2018-01-12 22:00:00 8.2 4 Nordeste 13 Noroeste -- -- -- 93
2018-01-12 21:00:00 9 6 Norte 14 Norte -- -- -- 91
2018-01-12 20:00:00 9.9 3 Norte 10 Este -- -- -- 89
2018-01-12 19:00:00 11.9 4 Norte 9 Sudoeste -- -- -- 80
2018-01-12 18:00:00 14.3 5 Sudoeste 10 Oeste -- -- -- 75
2018-01-12 17:00:00 14.8 7 Oeste 23 Sudoeste -- -- -- 71
2018-01-12 16:00:00 15.1 18 Oeste 22 Oeste -- -- -- 70
2018-01-12 15:00:00 15.7 8 Sudoeste 11 Sudoeste -- -- -- 66
2018-01-12 14:00:00 15.4 11 Sudoeste 13 Sudoeste -- -- -- 71
2018-01-12 13:00:00 12.4 3 Nordeste 13 Norte -- -- -- 85
2018-01-12 12:00:00 9.8 8 Nordeste 14 Nordeste -- -- -- 100
2018-01-12 11:00:00 7.3 10 Nordeste 14 Nordeste -- -- -- 100
2018-01-12 10:00:00 5.7 7 Norte 13 Norte -- -- -- 100
2018-01-12 09:00:00 4.3 8 Norte 13 Nordeste -- -- -- 100
2018-01-12 08:00:00 4.5 5 Norte 11 Norte -- -- -- 100
2018-01-12 07:00:00 5.4 7 Norte 14 Norte -- -- -- 100
2018-01-12 06:00:00 5.4 7 Norte 15 Nordeste -- -- -- 100
2018-01-12 05:00:00 6.9 6 Norte 12 Norte -- -- -- 100
2018-01-12 04:00:00 7.6 7 Norte 13 Nordeste -- -- -- 99
2018-01-12 03:00:00 8.4 6 Norte 9 Nordeste -- -- -- 97
2018-01-12 02:00:00 8.9 4 Norte 13 Nordeste -- -- -- 96
2018-01-12 01:00:00 9.7 7 Nordeste 9 Norte -- -- -- 93
2018-01-12 00:00:00 11.4 6 Norte 18 Noroeste -- -- -- 85
2018-01-11 23:00:00 12.1 12 Noroeste 18 Noroeste -- -- -- 86
2018-01-11 22:00:00 12.7 12 Noroeste 18 Noroeste -- -- -- 87
2018-01-11 21:00:00 12.2 9 Oeste 17 Oeste -- -- -- 86
2018-01-11 20:00:00 12.3 10 Oeste 16 Noroeste -- -- -- 85
2018-01-11 19:00:00 12.9 8 Oeste 16 Noroeste -- -- -- 81
2018-01-11 18:00:00 14.6 11 Noroeste 26 Noroeste -- -- -- 74
2018-01-11 17:00:00 15.6 18 Noroeste 33 Noroeste -- -- -- 68
2018-01-11 16:00:00 15.8 18 Noroeste 34 Noroeste -- -- -- 67
2018-01-11 15:00:00 15.9 17 Noroeste 32 Noroeste -- -- -- 67
2018-01-11 14:00:00 15.4 18 Noroeste 34 Norte -- -- -- 69
2018-01-11 13:00:00 14.6 15 Norte 25 Noroeste -- -- -- 74
2018-01-11 12:00:00 13.3 5 Norte 11 Norte -- -- -- 82
2018-01-11 11:00:00 11.7 3 Este 7 Este -- -- -- 88
2018-01-11 10:00:00 9.3 2 Nordeste 5 Nordeste -- -- -- 98
2018-01-11 09:00:00 7.9 0 Calma 6 Nordeste -- -- -- 96
2018-01-11 08:00:00 8.2 3 Norte 13 Norte -- -- -- 94
2018-01-11 07:00:00 9.4 7 Norte 12 Norte -- -- -- 90
2018-01-11 06:00:00 10.1 10 Noroeste 14 Norte -- -- -- 87
2018-01-11 05:00:00 10.2 5 Norte 18 Noroeste -- -- -- 90
2018-01-11 04:00:00 11 7 Norte 18 Norte -- -- -- 90
2018-01-11 03:00:00 12.2 11 Norte 20 Norte -- -- -- 89
2018-01-11 02:00:00 12.6 7 Norte 17 Noroeste -- -- -- 89
2018-01-11 01:00:00 13 10 Noroeste 22 Noroeste -- -- -- 89
2018-01-11 00:00:00 13.6 12 Noroeste 21 Norte -- -- -- 91
2018-01-10 23:00:00 14.5 11 Noroeste 32 Oeste -- -- -- 95
2018-01-10 22:00:00 15.5 21 Oeste 31 Oeste -- -- -- 92
2018-01-10 21:00:00 15.3 15 Oeste 25 Oeste -- -- -- 95
2018-01-10 20:00:00 15.3 16 Oeste 27 Oeste -- -- -- 95
2018-01-10 19:00:00 15 10 Oeste 24 Oeste -- -- -- 96
2018-01-10 18:00:00 15.8 13 Oeste 24 Oeste -- -- -- 95
2018-01-10 17:00:00 15.1 23 Oeste 41 Oeste -- -- -- 96
2018-01-10 16:00:00 16.6 19 Oeste 25 Oeste -- -- -- 93
2018-01-10 15:00:00 17.1 17 Oeste 23 Oeste -- -- -- 90
2018-01-10 14:00:00 17 9 Sudoeste 17 Sudoeste -- -- -- 92
2018-01-10 13:00:00 16.9 8 Sudoeste 11 Sudoeste -- -- -- 91
2018-01-10 12:00:00 15.4 3 Este 9 Nordeste -- -- -- 95
2018-01-10 11:00:00 13.8 5 Nordeste 9 Nordeste -- -- -- 97
2018-01-10 10:00:00 12.2 5 Norte 9 Norte -- -- -- 100
2018-01-10 09:00:00 11.5 5 Norte 18 Noroeste -- -- -- 97
2018-01-10 08:00:00 12 12 Noroeste 22 Noroeste -- -- -- 97
2018-01-10 07:00:00 11.8 8 Norte 14 Noroeste -- -- -- 97
2018-01-10 06:00:00 12.3 6 Noroeste 10 Noroeste -- -- -- 99
2018-01-10 05:00:00 13.2 2 Noroeste 12 Noroeste -- -- -- 100
2018-01-10 04:00:00 13.6 6 Noroeste 13 Oeste -- -- -- 100
2018-01-10 03:00:00 13.9 6 Sudoeste 8 Sudoeste -- -- -- 100
2018-01-10 02:00:00 14.2 7 Noroeste 57 Sudoeste -- -- -- 100
2018-01-10 01:00:00 13.5 51 Sur 73 Sudoeste -- -- -- 100
2018-01-10 00:00:00 13.4 49 Sur 62 Sur -- -- -- 100
2018-01-09 23:00:00 13.3 52 Sur 76 Sur -- -- -- 98
2018-01-09 22:00:00 13.4 50 Sur 63 Sur -- -- -- 100
2018-01-09 21:00:00 13.5 45 Sudoeste 79 Sudoeste -- -- -- 100
2018-01-09 20:00:00 13 47 Sur 56 Sur -- -- -- 100
2018-01-09 19:00:00 13 39 Sudoeste 55 Sudoeste -- -- -- 100
2018-01-09 18:00:00 13.2 36 Sur 46 Sur -- -- -- 100
2018-01-09 17:00:00 13.1 37 Sur 58 Sur -- -- -- 97
2018-01-09 16:00:00 13.1 39 Sur 48 Sudoeste -- -- -- 97
2018-01-09 15:00:00 13.4 39 Sudoeste 46 Sudoeste -- -- -- 95
2018-01-09 14:00:00 13.4 35 Sudoeste 44 Sudoeste -- -- -- 92
2018-01-09 13:00:00 13.4 32 Sur 49 Sur -- -- -- 89
2018-01-09 12:00:00 12.9 34 Sur 44 Sudoeste -- -- -- 88
2018-01-09 11:00:00 12.4 38 Sudoeste 45 Sudoeste -- -- -- 90
2018-01-09 10:00:00 10.4 28 Sudoeste 35 Sur -- -- -- 100
2018-01-09 09:00:00 4.1 9 Norte 14 Norte 0 -- -- 100
2018-01-09 08:00:00 3.3 8 Norte 14 Norte 0 -- -- 100
2018-01-09 07:00:00 2.7 9 Norte 16 Norte 0 -- -- 100
2018-01-09 06:00:00 3.1 7 Norte 14 Nordeste 0 -- -- 100
2018-01-09 05:00:00 3.2 8 Norte 13 Norte 0 -- -- 100
2018-01-09 04:00:00 3.7 6 Norte 11 Nordeste 0 -- -- 100
2018-01-09 03:00:00 4.4 6 Norte 10 Nordeste 0 -- -- 99
2018-01-09 02:00:00 5.6 4 Norte 9 Norte 0 -- -- 99
2018-01-09 01:00:00 5.7 8 Nordeste 10 Este 0 -- -- 98
2018-01-09 00:00:00 6.1 4 Este 10 Nordeste 0 -- -- 98
2018-01-08 23:00:00 6.9 4 Norte 11 Nordeste 0 -- -- 96
2018-01-08 22:00:00 7.4 8 Nordeste 12 Norte 0 -- -- 94
2018-01-08 21:00:00 7.9 5 Norte 13 Norte 0 -- -- 93
2018-01-08 20:00:00 8.5 9 Norte 14 Norte 0 -- -- 93
2018-01-08 19:00:00 8.7 6 Norte 11 Noroeste 0 -- -- 90
2018-01-08 18:00:00 9.5 5 Norte 20 Nordeste 0 -- -- 88
2018-01-08 17:00:00 10.7 4 Nordeste 13 Nordeste 0 -- -- 83
2018-01-08 16:00:00 10 11 Nordeste 19 Norte 0 -- -- 85
2018-01-08 15:00:00 9.5 11 Norte 24 Oeste 0 -- -- 86
2018-01-08 14:00:00 9.9 12 Noroeste 18 Noroeste 0 -- -- 85
2018-01-08 13:00:00 10.2 3 Norte 15 Oeste 0 -- -- 86
2018-01-08 12:00:00 9.3 7 Noroeste 12 Noroeste 0 -- -- 92
2018-01-08 11:00:00 8.6 5 Sudeste 11 Sudeste 0.4 -- -- 99
2018-01-08 10:00:00 8.1 0 Calma 23 Sudeste 0 -- -- 100
2018-01-08 09:00:00 8.1 15 Sur 49 Sudoeste 10.6 -- -- 100
2018-01-08 08:00:00 9.2 21 Oeste 87 Sudoeste 2.8 -- -- 100
2018-01-08 07:00:00 11.4 51 Sur 64 Sur 0 -- -- 92
2018-01-08 06:00:00 11.3 50 Sur 61 Sur 0 -- -- 91
2018-01-08 05:00:00 11.2 45 Sur 63 Sur 0 -- -- 91
2018-01-08 04:00:00 11.1 40 Sur 50 Sur 0 -- -- 91
2018-01-08 03:00:00 9.5 8 Nordeste 49 Sur 1.8 -- -- 91
2018-01-08 02:00:00 10.5 36 Sur 46 Sur 0 -- -- 89
2018-01-08 01:00:00 10.5 37 Sur 55 Sur 0 -- -- 91
2018-01-08 00:00:00 10.6 36 Sur 53 Sur 0 -- -- 87
2018-01-07 23:00:00 10.9 42 Sur 51 Sur 0 -- -- 87
2018-01-07 22:00:00 11.8 30 Sudoeste 55 Sudoeste 0 -- -- 84
2018-01-07 21:00:00 9.9 5 Nordeste 13 Norte 0 -- -- 78
2018-01-07 20:00:00 11.1 10 Noroeste 18 Oeste 0 -- -- 69
2018-01-07 19:00:00 11.3 12 Noroeste 22 Oeste 0 -- -- 70
2018-01-07 18:00:00 12.2 20 Oeste 33 Oeste 0 -- -- 68
2018-01-07 17:00:00 12.5 19 Oeste 31 Oeste 0 -- -- 70
2018-01-07 16:00:00 12.5 20 Oeste 32 Oeste 0 -- -- 70
2018-01-07 15:00:00 12.6 18 Oeste 30 Oeste 0 -- -- 69
2018-01-07 14:00:00 12.8 20 Oeste 30 Oeste 0 -- -- 69
2018-01-07 13:00:00 13.1 12 Sudoeste 19 Sudoeste 0 -- -- 74
2018-01-07 12:00:00 10.7 2 Sur 7 Norte 0 -- -- 82
2018-01-07 11:00:00 8.1 3 Nordeste 15 Nordeste 0 -- -- 84
2018-01-07 10:00:00 5.6 8 Nordeste 13 Nordeste 0 -- -- 95
2018-01-07 09:00:00 4.7 4 Norte 11 Norte 0 -- -- 94
2018-01-07 08:00:00 5.5 5 Norte 12 Nordeste 0 -- -- 93
2018-01-07 07:00:00 5.8 5 Norte 10 Nordeste 0 -- -- 92
2018-01-07 06:00:00 6.2 5 Norte 10 Nordeste 0 -- -- 91
2018-01-07 05:00:00 6.4 6 Nordeste 12 Nordeste 0 -- -- 87
2018-01-07 04:00:00 7.5 4 Norte 11 Norte 0 -- -- 80
2018-01-07 03:00:00 8 5 Noroeste 11 Norte 0 -- -- 75
2018-01-07 02:00:00 8 3 Nordeste 8 Norte 0 -- -- 76
2018-01-07 01:00:00 7.9 4 Norte 11 Norte 0 -- -- 78
2018-01-07 00:00:00 8.1 6 Norte 10 Norte 0 -- -- 79
2018-01-06 23:00:00 8.2 5 Norte 13 Noroeste 0 -- -- 74
2018-01-06 22:00:00 8.9 9 Norte 13 Norte 0 -- -- 68
2018-01-06 21:00:00 9.6 8 Noroeste 14 Noroeste 0 -- -- 67
2018-01-06 20:00:00 10 9 Noroeste 16 Oeste 0 -- -- 63
2018-01-06 19:00:00 10.4 11 Noroeste 27 Noroeste 0 -- -- 62
2018-01-06 18:00:00 11.4 17 Noroeste 36 Noroeste 0 -- -- 57
2018-01-06 17:00:00 13.1 23 Noroeste 40 Oeste 0 -- -- 56
2018-01-06 16:00:00 12.8 26 Noroeste 39 Noroeste 0 -- -- 63
2018-01-06 15:00:00 11.9 26 Noroeste 40 Noroeste 0 -- -- 71
2018-01-06 14:00:00 12.2 23 Noroeste 38 Noroeste 0 -- -- 74
2018-01-06 13:00:00 11.5 22 Noroeste 39 Norte 0 -- -- 81
2018-01-06 12:00:00 10.3 18 Noroeste 31 Noroeste 0 -- -- 90
2018-01-06 11:00:00 9.4 11 Norte 22 Norte 0 -- -- 94
2018-01-06 10:00:00 8 10 Norte 24 Noroeste 0 -- -- 96
2018-01-06 09:00:00 7.8 17 Norte 33 Noroeste 0 -- -- 96
2018-01-06 08:00:00 8.1 20 Norte 39 Norte 0 -- -- 99
2018-01-06 07:00:00 8.6 20 Norte 41 Norte 0 -- -- 100
2018-01-06 06:00:00 8.8 23 Norte 42 Noroeste 0.2 -- -- 100
2018-01-06 05:00:00 11.6 20 Oeste 58 Sudoeste 2.6 -- -- 100
2018-01-06 04:00:00 12.2 45 Sudoeste 63 Sudoeste 0 -- -- 100
2018-01-06 03:00:00 12.6 42 Sudoeste 72 Sudoeste 6 -- -- 100
2018-01-06 02:00:00 12.2 49 Sudoeste 69 Sudoeste 3.4 -- -- 97
2018-01-06 01:00:00 13.8 41 Sudoeste 64 Sur 0.8 -- -- 98
2018-01-06 00:00:00 14.2 46 Sudoeste 62 Sur 2.6 -- -- 97
2018-01-05 23:00:00 15.1 41 Sur 55 Sudoeste 0 -- -- 93
2018-01-05 22:00:00 15.9 41 Sudoeste 55 Sur 0 -- -- 88
2018-01-05 21:00:00 15.8 40 Sudoeste 57 Sudoeste 0 -- -- 87
2018-01-05 20:00:00 15.7 36 Sudoeste 50 Sudoeste 0 -- -- 90
2018-01-05 19:00:00 15.5 35 Sudoeste 46 Sudoeste 0 -- -- 91
2018-01-05 18:00:00 15.4 36 Sudoeste 45 Sudoeste 0 -- -- 90
2018-01-05 17:00:00 15.5 36 Sudoeste 53 Sudoeste 0 -- -- 90
2018-01-05 16:00:00 15.5 37 Sudoeste 46 Sudoeste 0 -- -- 90
2018-01-05 15:00:00 15.7 37 Sudoeste 46 Sudoeste 0 -- -- 89
2018-01-05 14:00:00 15.5 37 Sudoeste 46 Sudoeste 0 -- -- 91
2018-01-05 13:00:00 15.5 32 Sudoeste 38 Sudoeste 0 -- -- 91
2018-01-05 12:00:00 15.8 18 Sudoeste 37 Sudoeste 0 -- -- 90
2018-01-05 11:00:00 15.8 23 Sudoeste 28 Sudoeste 0 -- -- 91
2018-01-05 10:00:00 15.8 13 Oeste 33 Oeste 0 -- -- 76
2018-01-05 09:00:00 15.8 26 Oeste 35 Oeste 0 -- -- 76
2018-01-05 08:00:00 15.6 15 Oeste 25 Oeste 0 -- -- 82
2018-01-05 07:00:00 15.4 13 Oeste 22 Oeste 0 -- -- 79
2018-01-05 06:00:00 15.5 12 Oeste 24 Oeste 0 -- -- 78
2018-01-05 05:00:00 15.4 10 Oeste 20 Oeste 0 -- -- 89
2018-01-05 04:00:00 15.1 8 Oeste 14 Oeste 0 -- -- 88
2018-01-05 03:00:00 14.8 6 Noroeste 12 Noroeste 0 -- -- 91
2018-01-05 02:00:00 14.5 7 Oeste 14 Noroeste 0 -- -- 91
2018-01-05 01:00:00 14.2 3 Norte 9 Noroeste 0 -- -- 90
2018-01-05 00:00:00 14.3 5 Noroeste 11 Noroeste 0 -- -- 89
2018-01-04 23:00:00 14.4 5 Noroeste 14 Noroeste 0 -- -- 87
2018-01-04 22:00:00 14.6 9 Noroeste 23 Noroeste 0 -- -- 87
2018-01-04 21:00:00 14.9 14 Norte 24 Noroeste 0 -- -- 86
2018-01-04 20:00:00 15.1 10 Noroeste 16 Noroeste 0 -- -- 87
2018-01-04 19:00:00 15.3 8 Noroeste 13 Noroeste 0 -- -- 85
2018-01-04 18:00:00 15.7 6 Oeste 14 Noroeste 0 -- -- 80
2018-01-04 17:00:00 15.9 6 Noroeste 22 Noroeste 0 -- -- 77
2018-01-04 16:00:00 15.8 16 Noroeste 25 Oeste 0 -- -- 78
2018-01-04 15:00:00 15.9 13 Noroeste 24 Norte 0 -- -- 78
2018-01-04 14:00:00 15.9 13 Noroeste 23 Norte 0 -- -- 80
2018-01-04 13:00:00 16 16 Noroeste 28 Noroeste 0 -- -- 79
2018-01-04 12:00:00 16 12 Norte 22 Noroeste 0 -- -- 81
2018-01-04 11:00:00 14.3 8 Noroeste 14 Noroeste 0 -- -- 88
2018-01-04 10:00:00 12.2 8 Noroeste 13 Oeste 0 -- -- 94
2018-01-04 09:00:00 11.1 0 Calma 8 Norte 0 -- -- 93
2018-01-04 08:00:00 11 0 Calma 9 Norte 0 -- -- 94
2018-01-04 07:00:00 11.3 0 Calma 9 Noroeste 0 -- -- 93
2018-01-04 06:00:00 11.6 3 Norte 12 Noroeste 0 -- -- 91
2018-01-04 05:00:00 12.2 6 Noroeste 13 Noroeste 0 -- -- 91
2018-01-04 04:00:00 12 4 Norte 15 Norte 0 -- -- 92
2018-01-04 03:00:00 12.4 9 Norte 19 Norte 0 -- -- 89
2018-01-04 02:00:00 13.1 8 Norte 15 Norte 0 -- -- 87
2018-01-04 01:00:00 13 4 Norte 14 Norte 0 -- -- 87
2018-01-04 00:00:00 14.1 10 Norte 21 Norte 0 -- -- 84
2018-01-03 23:00:00 14.2 9 Norte 23 Norte 0 -- -- 85
2018-01-03 22:00:00 15 14 Norte 23 Norte 0 -- -- 81
2018-01-03 21:00:00 15.7 13 Norte 23 Noroeste 0 -- -- 79
2018-01-03 20:00:00 15.2 8 Norte 17 Norte 0 -- -- 82
2018-01-03 19:00:00 15.7 4 Nordeste 21 Norte 0 -- -- 81
2018-01-03 18:00:00 18 17 Norte 26 Norte 0 -- -- 74
2018-01-03 17:00:00 19.4 6 Sur 9 Sudoeste 0 -- -- 77
2018-01-03 16:00:00 19.5 8 Sudoeste 12 Sudoeste 0 -- -- 73
2018-01-03 15:00:00 19.7 8 Sur 10 Sur 0 -- -- 72
2018-01-03 14:00:00 19.4 8 Sudoeste 14 Sudoeste 0 -- -- 71
2018-01-03 13:00:00 18.2 11 Sudoeste 15 Sudoeste 0 -- -- 76
2018-01-03 12:00:00 16.4 3 Nordeste 13 Este 0 -- -- 77
2018-01-03 11:00:00 14.5 10 Este 20 Nordeste 0 -- -- 82
2018-01-03 10:00:00 13.2 12 Norte 21 Norte 0 -- -- 88
2018-01-03 09:00:00 10.4 9 Norte 17 Norte 0 -- -- 93
2018-01-03 08:00:00 10.8 6 Norte 15 Nordeste 0 -- -- 92
2018-01-03 07:00:00 10.5 11 Nordeste 14 Nordeste 0 -- -- 91
2018-01-03 06:00:00 10.8 6 Este 14 Nordeste 0 -- -- 89
2018-01-03 05:00:00 12.1 8 Nordeste 25 Norte 0 -- -- 85
2018-01-03 04:00:00 13.3 17 Norte 33 Norte 0 -- -- 81
2018-01-03 03:00:00 13.3 14 Norte 24 Norte 0 -- -- 82
2018-01-03 02:00:00 13 11 Norte 23 Norte 0 -- -- 82
2018-01-03 01:00:00 13.4 16 Norte 26 Norte 0 -- -- 79
2018-01-03 00:00:00 13.4 11 Norte 24 Norte 0 -- -- 78
2018-01-02 23:00:00 13.7 15 Norte 29 Norte 0 -- -- 77
2018-01-02 22:00:00 12.8 11 Norte 23 Norte 0 -- -- 81
2018-01-02 21:00:00 13.7 15 Norte 24 Norte 0 -- -- 77
2018-01-02 20:00:00 13.9 16 Norte 26 Norte 0 -- -- 77
2018-01-02 19:00:00 14.7 15 Norte 31 Noroeste 0 -- -- 73
2018-01-02 18:00:00 16.2 13 Norte 32 Norte 0 -- -- 66
2018-01-02 17:00:00 17.6 19 Norte 33 Norte 0 -- -- 62
2018-01-02 16:00:00 18.1 21 Norte 36 Norte 0 -- -- 60
2018-01-02 15:00:00 18.2 14 Norte 26 Norte 0 -- -- 61
2018-01-02 14:00:00 17.8 13 Norte 28 Norte 0 -- -- 61
2018-01-02 13:00:00 16.3 17 Norte 27 Norte 0 -- -- 65
2018-01-02 12:00:00 13.4 6 Norte 13 Nordeste 0 -- -- 80
2018-01-02 11:00:00 10.5 9 Nordeste 14 Nordeste 0 -- -- 85
2018-01-02 10:00:00 7.1 7 Nordeste 12 Nordeste 0 -- -- 95
2018-01-02 09:00:00 5.4 6 Norte 13 Norte 0 -- -- 96
2018-01-02 08:00:00 6.3 5 Norte 15 Nordeste 0 -- -- 94
2018-01-02 07:00:00 6.8 6 Norte 13 Nordeste 0 -- -- 93
2018-01-02 06:00:00 7.1 11 Nordeste 17 Nordeste 0 -- -- 89
2018-01-02 05:00:00 7.7 9 Norte 15 Nordeste 0 -- -- 89
2018-01-02 04:00:00 7.9 10 Nordeste 16 Nordeste 0 -- -- 86
2018-01-02 03:00:00 8.9 12 Nordeste 15 Nordeste 0 -- -- 81
2018-01-02 02:00:00 9.6 0 Calma 4 Nordeste 0 -- -- 83
2018-01-02 01:00:00 9.6 3 Nordeste 12 Nordeste 0 -- -- 82
2018-01-02 00:00:00 10 9 Nordeste 13 Nordeste 0 -- -- 78
2018-01-01 23:00:00 10.4 9 Norte 16 Norte 0 -- -- 78
2018-01-01 22:00:00 9.9 8 Nordeste 10 Nordeste 0 -- -- 83
2018-01-01 21:00:00 10.8 5 Nordeste 13 Norte 0 -- -- 79
2018-01-01 20:00:00 12.2 10 Norte 20 Norte 0 -- -- 73
2018-01-01 19:00:00 13.3 8 Norte 21 Norte 0 -- -- 74
2018-01-01 18:00:00 15.3 7 Norte 19 Norte 0 -- -- 70
2018-01-01 17:00:00 16.8 12 Norte 19 Norte 0 -- -- 62
2018-01-01 16:00:00 18.1 8 Norte 28 Norte 0 -- -- 59
2018-01-01 15:00:00 17 13 Norte 22 Norte 0 -- -- 59
2018-01-01 14:00:00 15.9 12 Norte 21 Norte 0 -- -- 70
2018-01-01 13:00:00 14 8 Norte 14 Norte 0 -- -- 78
2018-01-01 12:00:00 11.5 6 Nordeste 13 Norte 0 -- -- 94
2018-01-01 11:00:00 9.5 9 Norte 18 Norte 0 -- -- 100
2018-01-01 10:00:00 7.1 9 Nordeste 22 Nordeste 0 -- -- 100
2018-01-01 09:00:00 6.1 13 Nordeste 18 Nordeste 0 -- -- 100
2018-01-01 08:00:00 7.6 6 Norte 13 Norte 0 -- -- 100
2018-01-01 07:00:00 8.4 6 Nordeste 8 Nordeste 0 -- -- 98
2018-01-01 06:00:00 10.1 5 Norte 9 Norte 0 -- -- 96
2018-01-01 05:00:00 10.2 4 Norte 8 Nordeste 0 -- -- 97
2018-01-01 04:00:00 10.6 5 Este 12 Nordeste 0 -- -- 97
2018-01-01 03:00:00 11.4 6 Norte 13 Nordeste 0 -- -- 96
2018-01-01 02:00:00 12.6 9 Nordeste 19 Norte 0 -- -- 92
2018-01-01 01:00:00 13.6 13 Norte 21 Norte 0 -- -- 92
2018-01-01 00:00:00 14.7 11 Norte 24 Norte 0 -- -- 91
2017-12-31 23:00:00 15.8 8 Noroeste 16 Noroeste 0 -- -- 92
2017-12-31 22:00:00 16.6 9 Noroeste 18 Oeste 0 -- -- 92
2017-12-31 21:00:00 16.8 11 Oeste 21 Noroeste 0 -- -- 91
2017-12-31 20:00:00 16.7 12 Oeste 20 Oeste 0 -- -- 95
2017-12-31 19:00:00 16.6 15 Oeste 23 Oeste 0 -- -- 94
2017-12-31 18:00:00 17.1 18 Oeste 24 Oeste 0 -- -- 89
2017-12-31 17:00:00 18.2 14 Oeste 23 Oeste 0 -- -- 87
2017-12-31 16:00:00 18.6 14 Oeste 19 Oeste 0 -- -- 86
2017-12-31 15:00:00 18.6 12 Oeste 19 Oeste 0 -- -- 86
2017-12-31 14:00:00 17.8 15 Oeste 19 Oeste 0 -- -- 87
2017-12-31 13:00:00 17.7 15 Oeste 19 Oeste 0 -- -- 92
2017-12-31 12:00:00 16.8 15 Oeste 21 Oeste 0 -- -- 94
2017-12-31 11:00:00 16.7 10 Oeste 15 Oeste 0 -- -- 96
2017-12-31 10:00:00 15.8 7 Oeste 15 Oeste 0 -- -- 96
2017-12-31 09:00:00 15.6 9 Oeste 24 Oeste 0 -- -- 95
2017-12-31 08:00:00 15.3 17 Oeste 24 Oeste 0 -- -- 100
2017-12-31 07:00:00 12.8 3 Noroeste 13 Sudoeste 0 -- -- 100
2017-12-31 06:00:00 12.6 4 Nordeste 8 Norte 0 -- -- 100
2017-12-31 05:00:00 12.7 4 Norte 10 Noroeste 0 -- -- 100
2017-12-31 04:00:00 12.4 6 Norte 12 Norte 0 -- -- 100
2017-12-31 03:00:00 12.1 7 Nordeste 10 Nordeste 0 -- -- 100
2017-12-31 02:00:00 12.4 6 Norte 10 Norte 0 -- -- 100
2017-12-31 01:00:00 12.1 6 Norte 9 Norte 0 -- -- 100